Time;durP1;ratioP1;P1;durP2;ratioP2;P2;SDS_P1;SDS_P2;PMS_P1;PMS_P2;Temp;Humidity;BMP_temperature;BMP_pressure;BME280_temperature;BME280_humidity;BME280_pressure;Samples;Min_cycle;Max_cycle;Signal;HPM_P1;HPM_P2
2022/12/21 00:00:24;;;;;;;37.57;24.87;;;;;;;8.79;100.00;100946.84;4964163;28;20674;-73
2022/12/21 00:02:49;;;;;;;37.37;23.33;;;;;;;8.83;100.00;100948.66;4967255;28;20203;-69
2022/12/21 00:05:14;;;;;;;32.20;21.57;;;;;;;8.81;100.00;100939.22;4967105;28;20203;-71
2022/12/21 00:07:40;;;;;;;35.83;24.00;;;;;;;8.79;100.00;100943.41;4961948;28;20221;-71
2022/12/21 00:10:06;;;;;;;35.33;22.60;;;;;;;8.77;100.00;100943.38;4958718;28;20756;-71
2022/12/21 00:12:31;;;;;;;33.70;23.00;;;;;;;8.77;100.00;100952.72;4928639;28;20291;-72
2022/12/21 00:14:57;;;;;;;35.03;22.60;;;;;;;8.76;100.00;100951.00;4965141;28;20192;-70
2022/12/21 00:17:22;;;;;;;35.40;23.87;;;;;;;8.73;100.00;100946.69;4960925;28;20731;-71
2022/12/21 00:19:47;;;;;;;33.20;22.43;;;;;;;8.75;100.00;100944.16;4963009;28;20621;-71
2022/12/21 00:22:13;;;;;;;36.40;22.40;;;;;;;8.75;100.00;100946.72;4964363;28;20631;-71
2022/12/21 00:24:38;;;;;;;34.47;22.37;;;;;;;8.74;100.00;100943.28;4966464;28;20290;-71
2022/12/21 00:27:04;;;;;;;32.23;21.80;;;;;;;8.73;100.00;100941.56;4958040;28;20201;-71
2022/12/21 00:29:30;;;;;;;36.30;22.77;;;;;;;8.74;100.00;100944.97;4955860;28;20626;-72
2022/12/21 00:31:55;;;;;;;34.50;21.90;;;;;;;8.75;100.00;100944.16;4949857;28;20247;-72
2022/12/21 00:34:23;;;;;;;32.57;22.00;;;;;;;8.73;100.00;100944.13;4966197;28;20685;-72
2022/12/21 00:36:51;;;;;;;32.63;22.17;;;;;;;8.73;100.00;100945.78;4943745;28;20216;-72
2022/12/21 00:39:18;;;;;;;30.77;21.50;;;;;;;8.73;100.00;100946.69;4964904;28;20275;-70
2022/12/21 00:41:43;;;;;;;33.90;22.47;;;;;;;8.72;100.00;100941.53;4950036;28;20201;-70
2022/12/21 00:44:12;;;;;;;30.40;20.70;;;;;;;8.72;100.00;100944.94;4950043;28;20224;-72
2022/12/21 00:46:37;;;;;;;38.33;22.57;;;;;;;8.72;100.00;100944.06;4948489;28;20753;-72
2022/12/21 00:49:05;;;;;;;29.97;21.20;;;;;;;8.71;100.00;100947.47;4964878;28;20698;-72
2022/12/21 00:51:33;;;;;;;32.00;21.23;;;;;;;8.69;100.00;100946.53;4966342;28;20729;-71
2022/12/21 00:54:00;;;;;;;32.90;22.70;;;;;;;8.69;100.00;100951.63;4942894;28;20195;-71
2022/12/21 00:56:26;;;;;;;34.10;22.93;;;;;;;8.69;100.00;100946.53;4966253;28;20232;-71
2022/12/21 00:58:52;;;;;;;33.87;22.20;;;;;;;8.67;100.00;100954.13;4957684;28;20221;-71
2022/12/21 01:01:32;;;;;;;30.20;20.10;;;;;;;8.67;100.00;100956.69;4966273;28;20283;-70
2022/12/21 01:03:58;;;;;;;32.00;21.17;;;;;;;8.67;100.00;100945.63;4964772;28;20550;-71
2022/12/21 01:06:30;;;;;;;29.60;20.83;;;;;;;8.66;100.00;100954.13;4950395;28;20294;-72
2022/12/21 01:08:56;;;;;;;32.37;21.67;;;;;;;8.65;100.00;100960.91;4946197;28;20252;-72
2022/12/21 01:11:24;;;;;;;33.67;21.17;;;;;;;8.66;100.00;100960.06;4945930;28;20367;-71
2022/12/21 01:13:49;;;;;;;28.67;20.53;;;;;;;8.66;100.00;100959.22;4968229;28;20582;-70
2022/12/21 01:16:37;;;;;;;30.03;19.63;;;;;;;8.68;100.00;100963.56;4968150;28;20211;-71
2022/12/21 01:19:05;;;;;;;31.13;20.37;;;;;;;8.68;100.00;100968.66;4946882;28;20255;-70
2022/12/21 01:21:32;;;;;;;29.37;20.27;;;;;;;8.67;100.00;100963.50;4968037;28;20721;-71
2022/12/21 01:23:59;;;;;;;28.50;20.53;;;;;;;8.66;100.00;100972.00;4950507;28;20197;-70
2022/12/21 01:26:25;;;;;;;29.30;20.20;;;;;;;8.66;100.00;100977.09;4964982;28;20196;-70
2022/12/21 01:28:51;;;;;;;29.43;20.40;;;;;;;8.67;100.00;100976.25;4952353;28;20294;-71
2022/12/21 01:31:17;;;;;;;29.43;19.90;;;;;;;8.65;100.00;100983.00;4970747;28;20201;-71
2022/12/21 01:33:43;;;;;;;29.47;20.03;;;;;;;8.64;100.00;100981.28;4965857;28;20259;-73
2022/12/21 01:36:12;;;;;;;25.73;18.63;;;;;;;8.63;100.00;100982.97;4971658;28;20573;-73
2022/12/21 01:38:40;;;;;;;24.13;16.60;;;;;;;8.62;100.00;100991.44;4969199;28;20209;-69
2022/12/21 01:41:19;;;;;;;182.07;18.40;;;;;;;8.48;100.00;100986.75;4947582;28;20201;-72
2022/12/21 01:43:49;;;;;;;55.53;13.37;;;;;;;8.47;100.00;100985.88;4966261;28;20192;-72
2022/12/21 01:46:47;;;;;;;30.17;12.10;;;;;;;8.44;100.00;100988.31;4950460;28;20232;-72
2022/12/21 01:49:19;;;;;;;75.03;13.93;;;;;;;8.45;100.00;100987.53;4966644;28;20255;-72
2022/12/21 01:51:50;;;;;;;22.10;10.23;;;;;;;8.45;100.00;100979.00;4963849;28;20251;-71
2022/12/21 01:54:26;;;;;;;29.13;11.17;;;;;;;8.46;100.00;100983.28;4966920;28;20216;-71
2022/12/21 01:56:56;;;;;;;25.23;12.10;;;;;;;8.49;100.00;100983.38;4967123;28;20312;-71
2022/12/21 01:59:42;;;;;;;26.37;13.63;;;;;;;8.50;100.00;100985.97;4956519;28;20219;-71
2022/12/21 02:02:11;;;;;;;16.53;12.17;;;;;;;8.52;100.00;100986.88;4962103;28;20208;-71
2022/12/21 02:04:40;;;;;;;23.10;11.77;;;;;;;8.49;100.00;100984.25;4962201;28;20284;-71
2022/12/21 02:07:06;;;;;;;20.70;11.90;;;;;;;8.47;100.00;100987.59;4960131;28;20705;-71
2022/12/21 02:09:34;;;;;;;33.60;11.33;;;;;;;8.46;100.00;100978.16;4959951;28;20252;-70
2022/12/21 02:12:03;;;;;;;12.80;10.20;;;;;;;8.44;100.00;100965.38;4961969;28;20197;-70
2022/12/21 02:14:32;;;;;;;46.70;11.13;;;;;;;8.37;100.00;100965.13;4967433;28;20208;-70
2022/12/21 02:17:24;;;;;;;11.13;8.90;;;;;;;8.38;100.00;100962.63;4960681;28;20224;-70
2022/12/21 02:20:05;;;;;;;85.27;13.80;;;;;;;8.36;100.00;100966.84;4970647;28;20196;-72
2022/12/21 02:22:55;;;;;;;31.03;11.97;;;;;;;8.37;100.00;100963.47;4944030;28;20295;-73
2022/12/21 02:25:30;;;;;;;18.13;12.13;;;;;;;8.39;100.00;100966.91;4967045;28;20196;-72
2022/12/21 02:27:56;;;;;;;14.67;11.17;;;;;;;8.43;100.00;100973.84;4969477;28;20639;-71
2022/12/21 02:30:23;;;;;;;14.93;8.80;;;;;;;8.34;100.00;100967.63;4969683;28;20211;-72
2022/12/21 02:33:12;;;;;;;11.53;8.90;;;;;;;8.30;100.00;100973.44;4969186;28;20200;-71
2022/12/21 02:35:44;;;;;;;20.23;7.87;;;;;;;8.30;100.00;100974.28;4965027;28;20197;-70
2022/12/21 02:38:36;;;;;;;16.20;9.10;;;;;;;8.30;100.00;100979.41;4956617;28;20343;-71
2022/12/21 02:41:15;;;;;;;13.27;9.27;;;;;;;8.30;100.00;100973.44;4961977;28;20312;-71
2022/12/21 02:44:14;;;;;;;12.97;8.77;;;;;;;8.27;100.00;100968.25;4965894;28;20196;-71
2022/12/21 02:46:43;;;;;;;12.87;8.37;;;;;;;8.24;100.00;100971.56;4948191;28;20255;-70
2022/12/21 02:49:20;;;;;;;13.20;8.03;;;;;;;8.17;100.00;100969.63;4966222;28;20227;-71
2022/12/21 02:52:01;;;;;;;11.07;7.00;;;;;;;8.16;100.00;100972.97;4959972;28;20208;-70
2022/12/21 02:54:27;;;;;;;8.27;6.53;;;;;;;8.11;100.00;100974.53;4962239;28;20228;-70
2022/12/21 02:56:52;;;;;;;26.80;6.90;;;;;;;8.10;100.00;100971.91;4946596;28;20640;-70
2022/12/21 02:59:23;;;;;;;10.40;5.90;;;;;;;8.10;100.00;100961.72;4950644;28;20189;-70
2022/12/21 03:01:55;;;;;;;11.90;7.57;;;;;;;8.11;100.00;100977.06;4954318;28;20193;-70
2022/12/21 03:04:30;;;;;;;14.83;7.93;;;;;;;8.08;100.00;100976.13;4945884;28;20200;-73
2022/12/21 03:07:14;;;;;;;7.83;5.43;;;;;;;8.01;100.00;100975.06;4966668;28;20233;-71
2022/12/21 03:10:00;;;;;;;25.40;9.03;;;;;;;8.05;100.00;100970.91;4942360;28;20223;-71
2022/12/21 03:12:35;;;;;;;20.40;7.37;;;;;;;8.02;100.00;100983.59;4966446;28;20295;-71
2022/12/21 03:15:19;;;;;;;40.53;9.47;;;;;;;8.01;100.00;100980.16;4965939;28;20192;-71
2022/12/21 03:18:08;;;;;;;19.30;7.97;;;;;;;8.01;100.00;100975.06;4950744;28;20212;-71
2022/12/21 03:20:48;;;;;;;55.13;10.63;;;;;;;8.03;100.00;100976.00;4968390;28;20280;-71
2022/12/21 03:23:22;;;;;;;22.90;8.77;;;;;;;8.04;100.00;100977.72;4958363;28;20223;-70
2022/12/21 03:25:54;;;;;;;70.93;11.70;;;;;;;8.09;100.00;100981.28;4960904;28;20209;-70
2022/12/21 03:28:26;;;;;;;105.77;13.63;;;;;;;8.11;100.00;100989.81;4959849;28;20244;-70
2022/12/21 03:30:55;;;;;;;97.77;14.00;;;;;;;8.11;100.00;100992.38;4965140;28;20201;-70
2022/12/21 03:33:27;;;;;;;103.03;14.53;;;;;;;8.12;100.00;100991.56;4964863;28;20210;-70
2022/12/21 03:35:59;;;;;;;126.33;14.30;;;;;;;8.11;100.00;100983.88;4967529;28;20716;-70
2022/12/21 03:38:31;;;;;;;98.03;14.20;;;;;;;8.09;100.00;100976.16;4968454;28;20750;-72
2022/12/21 03:41:01;;;;;;;106.40;13.33;;;;;;;8.10;100.00;100983.00;4965654;28;20193;-73
2022/12/21 03:43:30;;;;;;;69.10;12.60;;;;;;;8.09;100.00;100980.38;4960707;28;20204;-72
2022/12/21 03:46:00;;;;;;;66.77;11.40;;;;;;;8.02;100.00;100983.59;4963368;28;20213;-72
2022/12/21 03:48:29;;;;;;;71.70;12.83;;;;;;;8.04;100.00;100980.25;4956593;28;20224;-71
2022/12/21 03:50:59;;;;;;;65.57;12.70;;;;;;;8.06;100.00;100977.75;4966101;28;20321;-70
2022/12/21 03:53:48;;;;;;;34.47;11.27;;;;;;;8.05;100.00;100971.78;4959441;28;20197;-71
2022/12/21 03:56:22;;;;;;;67.00;11.73;;;;;;;8.01;100.00;100976.75;4964402;28;20200;-71
2022/12/21 03:58:48;;;;;;;97.07;12.57;;;;;;;8.01;100.00;100972.50;4962649;28;20216;-71
2022/12/21 04:01:45;;;;;;;87.33;13.00;;;;;;;8.00;100.00;100973.31;4962711;28;20200;-71
2022/12/21 04:04:27;;;;;;;95.03;13.20;;;;;;;7.98;100.00;100976.66;4966356;28;20203;-70
2022/12/21 04:06:55;;;;;;;52.97;11.87;;;;;;;7.98;100.00;100976.66;4968633;28;20418;-71
2022/12/21 04:09:21;;;;;;;53.20;11.70;;;;;;;7.95;100.00;100969.78;4969308;28;20712;-70
2022/12/21 04:14:31;;;;;;;39.57;12.13;;;;;;;7.96;100.00;100984.25;4964332;28;20203;-70
2022/12/21 04:16:56;;;;;;;71.20;13.90;;;;;;;7.96;100.00;100985.91;4957676;28;20196;-70
2022/12/21 04:22:06;;;;;;;37.87;13.13;;;;;;;7.95;100.00;100979.97;4960620;28;20204;-73
2022/12/21 04:29:59;;;;;;;49.10;13.60;;;;;;;7.97;100.00;100980.88;4947817;28;20569;-72
2022/12/21 04:32:24;;;;;;;35.30;13.40;;;;;;;7.96;100.00;100975.72;4966239;28;20224;-72
2022/12/21 04:34:50;;;;;;;22.10;12.90;;;;;;;7.98;100.00;100976.66;4964600;28;20204;-69
2022/12/21 04:37:30;;;;;;;24.33;13.50;;;;;;;7.97;100.00;100978.31;4965113;28;20223;-71
2022/12/21 04:39:56;;;;;;;26.37;13.20;;;;;;;8.00;100.00;100975.00;4946441;28;20210;-72
2022/12/21 04:42:22;;;;;;;27.07;13.17;;;;;;;8.00;100.00;100977.56;4966706;28;20196;-71
2022/12/21 04:44:47;;;;;;;21.57;13.20;;;;;;;8.01;100.00;100979.31;4959848;28;20193;-71
2022/12/21 04:47:13;;;;;;;28.57;13.87;;;;;;;8.00;100.00;100975.88;4963891;28;20590;-71
2022/12/21 04:49:38;;;;;;;25.13;12.97;;;;;;;7.99;100.00;100974.16;4963958;28;20596;-71
2022/12/21 04:52:04;;;;;;;21.53;12.73;;;;;;;8.00;100.00;100972.44;4967872;28;20204;-71
2022/12/21 04:54:29;;;;;;;46.90;11.50;;;;;;;7.88;100.00;100969.53;4965047;28;20200;-72
2022/12/21 04:56:55;;;;;;;120.00;11.27;;;;;;;7.78;100.00;100963.25;4964908;28;20192;-71
2022/12/21 04:59:20;;;;;;;12.63;7.90;;;;;;;7.74;100.00;100963.13;4967527;28;20207;-71
2022/12/21 05:01:45;;;;;;;56.27;10.70;;;;;;;7.65;100.00;100973.88;4968511;28;20232;-70
2022/12/21 05:04:11;;;;;;;23.20;8.97;;;;;;;7.61;100.00;100981.38;4966065;28;20238;-71
2022/12/21 05:06:36;;;;;;;17.13;9.93;;;;;;;7.62;100.00;100991.63;4962631;28;20650;-71
2022/12/21 05:09:02;;;;;;;15.53;9.27;;;;;;;7.60;100.00;100979.66;4963206;28;20325;-71
2022/12/21 05:11:27;;;;;;;114.17;10.67;;;;;;;7.52;100.00;100987.03;4963876;28;20220;-71
2022/12/21 05:13:53;;;;;;;64.93;8.43;;;;;;;7.46;100.00;100991.06;4956652;28;20185;-71
2022/12/21 05:16:22;;;;;;;56.80;8.93;;;;;;;7.39;100.00;100991.66;4967600;28;20204;-72
2022/12/21 05:18:48;;;;;;;7.77;5.47;;;;;;;7.35;100.00;100980.50;4959849;28;20610;-71
2022/12/21 05:21:14;;;;;;;18.53;6.30;;;;;;;7.36;100.00;100986.44;4946296;28;20196;-72
2022/12/21 05:23:39;;;;;;;86.03;7.77;;;;;;;7.24;100.00;100980.94;4960333;28;20736;-71
2022/12/21 05:26:07;;;;;;;41.03;6.67;;;;;;;7.18;100.00;100978.19;4929325;28;20236;-71
2022/12/21 05:28:32;;;;;;;74.30;7.23;;;;;;;7.15;100.00;100976.41;4965539;28;20228;-70
2022/12/21 05:30:58;;;;;;;68.00;6.80;;;;;;;7.13;100.00;100977.16;4960101;28;20200;-72
2022/12/21 05:33:23;;;;;;;20.50;4.53;;;;;;;7.08;100.00;100984.63;4960262;28;20637;-71
2022/12/21 05:35:49;;;;;;;28.27;4.33;;;;;;;7.03;100.00;100983.59;4959216;28;20204;-72
2022/12/21 05:38:15;;;;;;;3.00;2.47;;;;;;;6.97;100.00;100987.63;4965003;28;20593;-71
2022/12/21 05:40:45;;;;;;;2.90;2.40;;;;;;;6.88;100.00;100990.72;4956447;28;20865;-71
2022/12/21 05:43:11;;;;;;;40.30;4.23;;;;;;;6.81;100.00;100980.25;4961363;28;20280;-71
2022/12/21 05:45:36;;;;;;;2.63;2.33;;;;;;;6.76;100.00;100985.16;4962678;28;20902;-71
2022/12/21 05:48:02;;;;;;;4.17;2.60;;;;;;;6.78;100.00;100987.75;4965610;28;20227;-71
2022/12/21 05:50:27;;;;;;;11.47;7.63;;;;;;;6.95;100.00;100985.00;4962401;28;20217;-72
2022/12/21 05:52:53;;;;;;;19.70;11.60;;;;;;;7.15;100.00;100973.00;4971038;28;20277;-71
2022/12/21 05:55:18;;;;;;;12.57;8.30;;;;;;;7.09;100.00;100968.53;4959498;28;20685;-71
2022/12/21 05:57:44;;;;;;;12.93;8.20;;;;;;;7.05;100.00;100989.59;4964961;28;20217;-71
2022/12/21 06:00:10;;;;;;;20.63;12.60;;;;;;;7.22;100.00;101003.81;4969929;28;20188;-72
2022/12/21 06:02:38;;;;;;;22.57;10.80;;;;;;;7.26;100.00;100995.47;4966092;28;20197;-71
2022/12/21 06:05:03;;;;;;;43.33;11.37;;;;;;;7.17;100.00;100984.97;4968201;28;20238;-71
2022/12/21 06:07:29;;;;;;;31.60;9.90;;;;;;;7.12;100.00;100975.41;4968433;28;20225;-72
2022/12/21 06:09:55;;;;;;;19.73;9.10;;;;;;;7.09;100.00;100980.41;4966516;28;20220;-72
2022/12/21 06:12:20;;;;;;;13.30;8.43;;;;;;;7.05;100.00;100979.41;4963550;28;20246;-71
2022/12/21 06:14:46;;;;;;;12.10;7.90;;;;;;;7.09;100.00;100985.50;4965557;28;20729;-72
2022/12/21 06:17:11;;;;;;;11.03;7.00;;;;;;;7.08;100.00;100989.72;4966711;28;20347;-71
2022/12/21 06:19:37;;;;;;;22.90;12.30;;;;;;;7.12;100.00;100995.78;4947354;28;20224;-72
2022/12/21 06:22:02;;;;;;;25.03;13.50;;;;;;;7.16;100.00;100984.91;4968480;28;20536;-72
2022/12/21 06:24:28;;;;;;;39.87;17.20;;;;;;;7.27;100.00;100988.72;4964906;28;20555;-70
2022/12/21 06:26:53;;;;;;;43.23;16.53;;;;;;;7.37;100.00;100989.03;4968055;28;20216;-71
2022/12/21 06:29:18;;;;;;;33.60;15.77;;;;;;;7.38;100.00;100987.38;4963304;28;20869;-69
2022/12/21 06:31:44;;;;;;;38.03;15.07;;;;;;;7.33;100.00;100981.25;4960809;28;20647;-70
2022/12/21 06:34:10;;;;;;;35.23;13.90;;;;;;;7.28;100.00;100991.28;4969761;28;20650;-70
2022/12/21 06:36:36;;;;;;;30.73;11.80;;;;;;;7.22;100.00;100991.06;4967090;28;20697;-69
2022/12/21 06:39:02;;;;;;;22.60;10.47;;;;;;;7.15;100.00;100986.59;4964489;28;20219;-70
2022/12/21 06:41:27;;;;;;;21.57;10.97;;;;;;;7.11;100.00;100988.97;4966081;28;20192;-71
2022/12/21 06:43:52;;;;;;;32.03;11.70;;;;;;;7.16;100.00;100984.91;4968084;28;20220;-71
2022/12/21 06:46:19;;;;;;;81.97;13.50;;;;;;;7.13;100.00;100993.28;4965601;28;20552;-71
2022/12/21 06:48:46;;;;;;;173.20;15.57;;;;;;;7.10;100.00;100993.19;4966707;28;20259;-70
2022/12/21 06:51:17;;;;;;;52.90;12.23;;;;;;;7.08;100.00;100999.91;4964033;28;21166;-71
2022/12/21 06:53:44;;;;;;;90.50;12.30;;;;;;;7.05;100.00;100999.78;4950611;28;20251;-70
2022/12/21 06:56:16;;;;;;;67.97;11.50;;;;;;;6.94;100.00;101010.41;4947254;28;20219;-70
2022/12/21 06:58:42;;;;;;;96.83;10.40;;;;;;;6.85;100.00;101005.84;4962351;28;20304;-73
2022/12/21 07:01:11;;;;;;;69.57;9.67;;;;;;;6.77;100.00;101019.97;4964006;28;20619;-71
2022/12/21 07:03:38;;;;;;;42.27;9.20;;;;;;;6.75;100.00;101021.59;4961866;28;20232;-71
2022/12/21 07:06:04;;;;;;;36.80;8.77;;;;;;;6.69;100.00;101023.03;4962970;28;20201;-72
2022/12/21 07:08:30;;;;;;;47.47;11.13;;;;;;;6.61;100.00;101025.31;4968124;28;20300;-72
2022/12/21 07:11:17;;;;;;;35.00;9.27;;;;;;;6.61;100.00;101034.59;4963467;28;20251;-71
2022/12/21 07:13:44;;;;;;;40.50;6.63;;;;;;;6.58;100.00;101025.19;4961572;28;20200;-71
2022/12/21 07:16:11;;;;;;;23.83;6.10;;;;;;;6.53;100.00;101031.75;4961858;28;20195;-71
2022/12/21 07:18:37;;;;;;;23.53;5.67;;;;;;;6.50;100.00;101025.72;4963876;28;20255;-71
2022/12/21 07:21:05;;;;;;;16.67;6.40;;;;;;;6.49;100.00;101036.69;4945471;28;20552;-71
2022/12/21 07:23:35;;;;;;;37.33;6.70;;;;;;;6.43;100.00;101034.78;4959954;28;20739;-72
2022/12/21 07:26:05;;;;;;;12.67;5.43;;;;;;;6.40;100.00;101029.56;4962300;28;20204;-72
2022/12/21 07:28:31;;;;;;;15.70;4.87;;;;;;;6.41;100.00;101040.59;4966751;28;20232;-71
2022/12/21 07:31:09;;;;;;;39.00;6.73;;;;;;;6.34;100.00;101043.69;4961260;28;20196;-71
2022/12/21 07:33:36;;;;;;;41.43;6.97;;;;;;;6.33;100.00;101042.84;4965467;28;20564;-71
2022/12/21 07:36:04;;;;;;;27.07;5.77;;;;;;;6.31;100.00;101049.53;4966384;28;20689;-71
2022/12/21 07:38:31;;;;;;;48.43;6.60;;;;;;;6.32;100.00;101043.66;4964338;28;20669;-71
2022/12/21 07:41:01;;;;;;;45.73;7.53;;;;;;;6.32;100.00;101043.66;4963401;28;20193;-71
2022/12/21 07:43:28;;;;;;;38.90;7.67;;;;;;;6.33;100.00;101045.41;4959612;28;20810;-72
2022/12/21 07:46:06;;;;;;;30.27;6.37;;;;;;;6.29;100.00;101043.53;4946390;28;20207;-71
2022/12/21 07:48:34;;;;;;;39.90;7.90;;;;;;;6.25;100.00;101028.97;4963209;28;20247;-72
2022/12/21 07:51:00;;;;;;;39.73;7.27;;;;;;;6.24;100.00;101022.16;4934239;28;20348;-71
2022/12/21 07:53:25;;;;;;;35.10;7.20;;;;;;;6.23;100.00;101025.50;4949566;28;20283;-71
2022/12/21 07:55:51;;;;;;;23.07;6.83;;;;;;;6.21;100.00;101034.75;4959475;28;20651;-71
2022/12/21 07:58:17;;;;;;;24.83;7.47;;;;;;;6.17;100.00;101043.03;4962233;28;20657;-72
2022/12/21 08:00:42;;;;;;;33.00;7.93;;;;;;;6.17;100.00;101032.88;4960861;28;20193;-72
2022/12/21 08:03:08;;;;;;;37.30;9.07;;;;;;;6.23;100.00;101032.25;4965403;28;20214;-72
2022/12/21 08:05:33;;;;;;;69.77;11.70;;;;;;;6.28;100.00;101046.91;4966513;28;20199;-71
2022/12/21 08:08:02;;;;;;;58.07;16.13;;;;;;;6.25;100.00;101056.06;4968785;28;20216;-71
2022/12/21 08:10:28;;;;;;;62.40;16.03;;;;;;;6.28;100.00;101054.53;4964775;28;20216;-72
2022/12/21 08:12:53;;;;;;;51.60;15.47;;;;;;;6.27;100.00;101042.59;4955595;28;20254;-71
2022/12/21 08:15:21;;;;;;;55.47;14.33;;;;;;;6.29;100.00;101050.28;4967279;28;20275;-72
2022/12/21 08:17:47;;;;;;;31.33;13.13;;;;;;;6.34;100.00;101044.59;4965788;28;20246;-72
2022/12/21 08:20:13;;;;;;;56.03;15.07;;;;;;;6.37;100.00;101037.09;4968427;28;20231;-71
2022/12/21 08:22:39;;;;;;;69.30;15.70;;;;;;;6.43;100.00;101049.16;4967767;28;20196;-70
2022/12/21 08:25:05;;;;;;;49.67;14.13;;;;;;;6.41;100.00;101061.81;4963888;28;20231;-71
2022/12/21 08:27:31;;;;;;;66.27;14.47;;;;;;;6.48;100.00;101061.25;4965632;28;20220;-70
2022/12/21 08:29:56;;;;;;;47.77;13.53;;;;;;;6.54;100.00;101060.63;4964455;28;20220;-70
2022/12/21 08:32:22;;;;;;;74.87;14.80;;;;;;;6.59;100.00;101047.25;4964604;28;20262;-70
2022/12/21 08:34:47;;;;;;;48.07;13.47;;;;;;;6.60;100.00;101045.59;4963104;28;20274;-71
2022/12/21 08:37:13;;;;;;;53.47;13.87;;;;;;;6.60;100.00;101041.38;4965649;28;20228;-70
2022/12/21 08:39:39;;;;;;;49.27;14.13;;;;;;;6.58;100.00;101032.81;4963633;28;20188;-70
2022/12/21 08:42:04;;;;;;;50.87;13.33;;;;;;;6.55;100.00;101019.13;4964331;28;20650;-71
2022/12/21 08:44:30;;;;;;;40.60;11.87;;;;;;;6.54;100.00;101030.09;4962172;28;20674;-71
2022/12/21 08:46:55;;;;;;;41.60;13.10;;;;;;;6.56;100.00;101044.63;4960946;28;20280;-70
2022/12/21 08:49:21;;;;;;;54.20;15.53;;;;;;;6.54;100.00;101038.59;4949528;28;20256;-69
2022/12/21 08:51:46;;;;;;;44.93;13.70;;;;;;;6.51;100.00;101046.13;4963032;28;20199;-72
2022/12/21 08:54:12;;;;;;;33.67;12.53;;;;;;;6.55;100.00;101031.84;4962075;28;20211;-73
2022/12/21 08:56:37;;;;;;;43.90;12.57;;;;;;;6.62;100.00;101038.88;4957735;28;20208;-70
2022/12/21 08:59:05;;;;;;;27.77;12.13;;;;;;;6.66;100.00;101036.50;4961815;28;20215;-69
2022/12/21 09:01:31;;;;;;;35.33;11.83;;;;;;;6.60;100.00;101035.41;4968401;28;20637;-73
2022/12/21 09:03:57;;;;;;;26.73;11.87;;;;;;;6.61;100.00;101038.03;4946514;28;20201;-72
2022/12/21 09:06:23;;;;;;;31.00;13.77;;;;;;;6.68;100.00;101029.78;4965025;28;20329;-73
2022/12/21 09:08:49;;;;;;;24.20;12.07;;;;;;;6.70;100.00;101035.81;4968217;28;20299;-72
2022/12/21 09:11:16;;;;;;;35.43;12.17;;;;;;;6.71;100.00;101037.56;4965592;28;20357;-72
2022/12/21 09:13:42;;;;;;;28.43;11.63;;;;;;;6.76;100.00;101042.81;4963678;28;20203;-71
2022/12/21 09:16:14;;;;;;;18.80;10.83;;;;;;;6.79;100.00;101043.81;4943719;28;20284;-70
2022/12/21 09:18:40;;;;;;;24.50;10.27;;;;;;;6.79;100.00;101042.94;4965137;28;20216;-71
2022/12/21 09:21:05;;;;;;;19.67;10.27;;;;;;;6.75;100.00;101041.06;4964065;28;20286;-72
2022/12/21 09:23:31;;;;;;;39.40;11.57;;;;;;;6.72;100.00;101049.47;4964175;28;20215;-71
2022/12/21 09:25:56;;;;;;;31.53;10.30;;;;;;;6.70;100.00;101057.84;4967042;28;20197;-71
2022/12/21 09:28:22;;;;;;;22.63;9.87;;;;;;;6.70;100.00;101061.28;4966587;28;20220;-71
2022/12/21 09:30:48;;;;;;;21.33;10.03;;;;;;;6.72;100.00;101062.19;4971098;28;20220;-71
2022/12/21 09:33:13;;;;;;;38.73;10.53;;;;;;;6.74;100.00;101059.69;4968986;28;20223;-71
2022/12/21 09:35:39;;;;;;;45.33;10.87;;;;;;;6.74;100.00;101059.69;4963608;28;20608;-71
2022/12/21 09:38:05;;;;;;;72.53;16.57;;;;;;;6.76;100.00;101073.34;4947754;28;20220;-72
2022/12/21 09:40:32;;;;;;;57.40;14.43;;;;;;;6.74;100.00;101068.22;4964922;28;20194;-72
2022/12/21 09:43:07;;;;;;;65.63;12.37;;;;;;;6.73;100.00;101073.25;4931091;28;20252;-71
2022/12/21 09:45:48;;;;;;;52.70;12.37;;;;;;;6.74;100.00;101082.59;4964612;28;20248;-71
2022/12/21 09:48:27;;;;;;;48.20;10.47;;;;;;;6.78;100.00;101069.19;4967139;28;20584;-71
2022/12/21 09:51:00;;;;;;;21.50;11.73;;;;;;;6.83;100.00;101067.69;4965789;28;20581;-72
2022/12/21 09:53:38;;;;;;;30.13;11.53;;;;;;;6.83;100.00;101063.47;4973619;28;20195;-71
2022/12/21 09:56:04;;;;;;;26.23;11.87;;;;;;;6.82;100.00;101059.16;4963624;28;20288;-71
2022/12/21 09:58:45;;;;;;;18.53;10.47;;;;;;;6.94;100.00;101064.72;4972819;28;20211;-69
2022/12/21 10:01:37;;;;;;;21.47;10.10;;;;;;;6.96;100.00;101045.28;4965854;28;20282;-71
2022/12/21 10:04:09;;;;;;;17.40;9.00;;;;;;;6.93;100.00;101042.63;4965428;28;20246;-71
2022/12/21 10:07:02;;;;;;;17.73;10.10;;;;;;;6.91;100.00;101041.69;4969079;28;20258;-71
2022/12/21 10:10:02;;;;;;;25.40;9.63;;;;;;;6.88;100.00;101043.28;4961898;28;20274;-71
2022/12/21 10:12:33;;;;;;;17.37;9.87;;;;;;;6.95;100.00;101046.09;4962141;28;20215;-71
2022/12/21 10:14:58;;;;;;;47.10;17.97;;;;;;;6.97;100.00;101041.06;4965287;28;20188;-70
2022/12/21 10:17:24;;;;;;;31.83;15.67;;;;;;;6.96;100.00;101037.63;4967974;28;20244;-75
2022/12/21 10:19:58;;;;;;;27.33;13.53;;;;;;;7.02;100.00;101039.56;4953513;28;20209;-70
2022/12/21 10:22:31;;;;;;;22.80;12.63;;;;;;;7.07;100.00;101027.84;4966071;28;20364;-72
2022/12/21 10:25:02;;;;;;;26.20;12.47;;;;;;;7.12;100.00;101024.66;4964900;28;20573;-73
2022/12/21 10:27:27;;;;;;;21.43;12.73;;;;;;;7.15;100.00;101018.81;4958967;28;20221;-71
2022/12/21 10:29:56;;;;;;;27.33;13.93;;;;;;;7.19;100.00;101018.13;4967928;28;20219;-70
2022/12/21 10:32:24;;;;;;;25.37;13.13;;;;;;;7.20;100.00;101010.53;4965730;28;20763;-71
2022/12/21 10:34:54;;;;;;;25.97;12.30;;;;;;;7.24;100.00;101024.25;4962088;28;20252;-71
2022/12/21 10:37:21;;;;;;;23.40;13.30;;;;;;;7.28;100.00;101013.34;4963286;28;20228;-70
2022/12/21 10:39:54;;;;;;;26.20;14.70;;;;;;;7.29;100.00;101007.44;4963444;28;20246;-70
2022/12/21 10:42:31;;;;;;;21.73;12.13;;;;;;;7.31;100.00;101008.34;4957066;28;20228;-70
2022/12/21 10:44:58;;;;;;;22.93;11.90;;;;;;;7.37;100.00;100994.13;4965610;28;20220;-70
2022/12/21 10:47:24;;;;;;;19.33;11.03;;;;;;;7.42;100.00;100997.72;4968551;28;20686;-70
2022/12/21 10:50:08;;;;;;;21.03;12.10;;;;;;;7.41;100.00;101003.63;4969927;28;20207;-70
2022/12/21 10:52:47;;;;;;;22.70;13.07;;;;;;;7.45;100.00;101007.13;4959505;28;20724;-70
2022/12/21 10:55:18;;;;;;;23.57;11.63;;;;;;;7.45;100.00;101009.69;4965255;28;20576;-72
2022/12/21 10:58:05;;;;;;;20.67;11.83;;;;;;;7.46;100.00;100999.56;4959622;28;20720;-72
2022/12/21 11:00:38;;;;;;;20.77;12.20;;;;;;;7.51;100.00;100995.47;4959924;28;20204;-73
2022/12/21 11:03:34;;;;;;;26.00;13.33;;;;;;;7.64;100.00;100989.13;4963590;28;20208;-70
2022/12/21 11:06:18;;;;;;;23.67;12.57;;;;;;;7.91;100.00;100995.09;4965383;28;20205;-70
2022/12/21 11:08:47;;;;;;;26.10;12.70;;;;;;;7.94;100.00;100990.13;4963381;28;20224;-71
2022/12/21 11:11:37;;;;;;;27.73;12.87;;;;;;;7.94;100.00;100991.00;4949280;28;20201;-70
2022/12/21 11:14:14;;;;;;;22.40;13.27;;;;;;;7.90;100.00;100994.25;4957122;28;20635;-72
2022/12/21 11:16:41;;;;;;;25.53;13.70;;;;;;;7.89;100.00;100984.88;4963675;28;20736;-70
2022/12/21 11:19:13;;;;;;;30.67;15.80;;;;;;;7.90;100.00;100986.59;4958955;28;20275;-69
2022/12/21 11:21:42;;;;;;;29.03;15.00;;;;;;;7.92;100.00;100987.50;4962738;28;20208;-73
2022/12/21 11:24:22;;;;;;;29.20;14.73;;;;;;;7.92;100.00;100982.41;4960901;28;20629;-72
2022/12/21 11:26:52;;;;;;;24.37;14.10;;;;;;;7.95;100.00;100981.63;4962562;28;20242;-72
2022/12/21 11:29:18;;;;;;;31.40;15.23;;;;;;;7.97;100.00;100977.47;4958708;28;20232;-72
2022/12/21 11:31:44;;;;;;;26.33;13.90;;;;;;;7.98;100.00;100976.66;4966144;28;20203;-72
2022/12/21 11:34:28;;;;;;;29.13;14.53;;;;;;;7.99;100.00;100973.28;4966960;28;20663;-71